Portada
METAR-TAF:

METAR-TAF

Aeroports :

Lyndonville, Vermont, Estats Units d'Amèrica

latitud: 44-34-09N, longitud: 072-01-05W, altitud: 362 m

Observació

L'informe es va fer fa 14 minuts, a les 17:35 UTC
Vent 3 kt del Est/Sud-Est
Temperatura 1°C
Humitat 93%
Pressió 987 hPa
Visibilitat: 1.6 km
Cel cobert a una alçada de 700 ft
neu

METAR: KCDA 271735Z AUTO 11003KT 1SM -SN OVC007 01/00 A2915 RMK AO2 T00070000

Hora: 12:49 (17:49 UTC)


TAF: manca

Observacions i pronòstics meteorològics de més de 4000 aeroports (METAR i TAF).

Les estacions disponibles són els punts grocs i vermells al mapa.

Posi el ratolí al punt desitjat per veure el nom de l'estació.

Feu clic per veure les observacions i els pronòstics meteorològics.

Per canviar el mapa: feu clic els botons verds amb una creu de color negre per apropar; al botó verd amb un guió per allunyar la imatge; o en les fletxes verdes per a mapes adjacents.


METAR-TAF: